createdAt,value
2018-06-01T00:01:05.701Z,17.00
2018-06-01T00:03:33.960Z,16.40
2018-06-01T00:06:02.226Z,16.30
2018-06-01T00:08:30.837Z,15.60
2018-06-01T00:10:59.131Z,16.10
2018-06-01T00:13:27.387Z,16.53
2018-06-01T00:15:55.750Z,16.03
2018-06-01T00:18:24.786Z,15.47
2018-06-01T00:20:53.855Z,16.93
2018-06-01T00:23:22.902Z,16.07
2018-06-01T00:25:51.212Z,14.60
2018-06-01T00:28:19.505Z,15.73
2018-06-01T00:30:47.777Z,15.90
2018-06-01T00:33:16.094Z,15.67
2018-06-01T00:35:44.381Z,18.77
2018-06-01T00:38:12.674Z,18.57
2018-06-01T00:40:40.924Z,16.87
2018-06-01T00:43:09.253Z,16.00
2018-06-01T00:45:37.534Z,15.70
2018-06-01T00:48:05.889Z,17.40
2018-06-01T00:50:34.138Z,15.73
2018-06-01T00:53:02.411Z,16.97
2018-06-01T00:55:30.848Z,17.40
2018-06-01T00:57:59.160Z,17.20
2018-06-01T01:00:27.432Z,17.97
2018-06-01T01:02:55.715Z,17.27
2018-06-01T01:05:24.762Z,17.23
2018-06-01T01:07:53.032Z,17.23
2018-06-01T01:10:21.334Z,17.90
2018-06-01T01:12:49.635Z,16.70
2018-06-01T01:15:17.952Z,16.57
2018-06-01T01:17:46.212Z,16.77
2018-06-01T01:20:14.500Z,15.47
2018-06-01T01:22:42.794Z,17.07
2018-06-01T01:25:11.076Z,16.43
2018-06-01T01:27:39.356Z,16.93
2018-06-01T01:30:07.646Z,18.40
2018-06-01T01:32:35.898Z,19.13
2018-06-01T01:35:04.156Z,17.77
2018-06-01T01:37:33.233Z,18.93
2018-06-01T01:40:01.511Z,18.07
2018-06-01T01:42:30.551Z,18.37
2018-06-01T01:44:58.845Z,17.43
2018-06-01T01:47:27.178Z,18.30
2018-06-01T01:49:55.444Z,20.40
2018-06-01T01:52:23.725Z,19.27
2018-06-01T01:54:52.129Z,19.23
2018-06-01T01:57:20.397Z,18.33
2018-06-01T01:59:48.685Z,18.63
2018-06-01T02:02:16.972Z,20.17
2018-06-01T02:04:45.254Z,20.30
2018-06-01T02:07:13.535Z,20.33
2018-06-01T02:09:41.802Z,20.23
2018-06-01T02:12:10.846Z,19.60
2018-06-01T02:14:39.127Z,18.77
2018-06-01T02:17:07.387Z,20.97
2018-06-01T02:19:36.426Z,19.23
2018-06-01T02:22:04.731Z,21.07
2018-06-01T02:24:32.991Z,20.10
2018-06-01T02:27:01.260Z,20.53
2018-06-01T02:29:29.542Z,20.37
2018-06-01T02:31:57.805Z,20.40
2018-06-01T02:34:26.096Z,20.53
2018-06-01T02:36:54.375Z,19.03
2018-06-01T02:39:22.632Z,20.53
2018-06-01T02:41:51.689Z,18.53
2018-06-01T02:44:19.991Z,18.93
2018-06-01T02:46:48.255Z,20.33
2018-06-01T02:49:16.568Z,19.77
2018-06-01T02:51:44.848Z,20.67
2018-06-01T02:54:13.119Z,22.13
2018-06-01T02:56:41.375Z,19.93
2018-06-01T02:59:10.436Z,21.33
2018-06-01T03:01:38.697Z,23.23
2018-06-01T03:04:06.982Z,20.50
2018-06-01T03:06:52.808Z,20.77
2018-06-01T03:09:21.090Z,21.10
2018-06-01T03:11:49.374Z,23.17
2018-06-01T03:14:17.675Z,22.77
2018-06-01T03:16:45.952Z,25.07
2018-06-01T03:19:14.226Z,27.53
2018-06-01T03:21:43.248Z,25.97
2018-06-01T03:24:11.543Z,30.27
2018-06-01T03:26:39.887Z,28.48
2018-06-01T03:29:08.182Z,30.20
2018-06-01T03:31:36.444Z,28.37
2018-06-01T03:34:04.720Z,27.30
2018-06-01T03:36:33.016Z,25.53
2018-06-01T03:39:01.295Z,28.40
2018-06-01T03:41:29.580Z,29.57
2018-06-01T03:43:57.960Z,32.37
2018-06-01T03:46:26.980Z,30.00
2018-06-01T03:48:55.236Z,31.93
2018-06-01T03:51:24.294Z,31.42
2018-06-01T03:53:52.554Z,32.00
2018-06-01T03:56:20.828Z,32.40
2018-06-01T03:58:49.931Z,33.63
2018-06-01T04:01:18.189Z,32.93
2018-06-01T04:03:46.478Z,34.53
2018-06-01T04:06:14.771Z,34.47
2018-06-01T04:08:43.063Z,38.83
2018-06-01T04:11:11.411Z,33.87
2018-06-01T04:13:40.470Z,33.67
2018-06-01T04:16:08.746Z,33.53
2018-06-01T04:18:37.018Z,34.00
2018-06-01T04:21:05.303Z,35.77
2018-06-01T04:23:33.562Z,38.23
2018-06-01T04:26:02.626Z,39.27
2018-06-01T04:28:32.437Z,36.87
2018-06-01T04:31:00.689Z,40.20
2018-06-01T04:33:29.713Z,41.67
2018-06-01T04:35:58.002Z,43.20
2018-06-01T04:38:26.277Z,45.47
2018-06-01T04:40:55.305Z,45.07
2018-06-01T04:43:23.588Z,45.97
2018-06-01T04:45:51.861Z,44.50
2018-06-01T04:48:20.894Z,44.20
2018-06-01T04:50:49.231Z,46.40
2018-06-01T04:53:18.317Z,47.97
2018-06-01T04:55:46.595Z,47.70
2018-06-01T04:58:14.892Z,49.23
2018-06-01T05:00:43.168Z,50.12
2018-06-01T05:03:11.437Z,49.03
2018-06-01T05:05:40.524Z,56.10
2018-06-01T05:08:08.776Z,60.53
2018-06-01T05:10:37.035Z,60.50
2018-06-01T05:13:05.321Z,62.37
2018-06-01T05:15:33.599Z,69.47
2018-06-01T05:18:02.634Z,78.63
2018-06-01T05:20:30.906Z,78.00
2018-06-01T05:22:59.197Z,81.30
2018-06-01T05:25:28.243Z,86.77
2018-06-01T05:27:56.574Z,90.83
2018-06-01T05:30:24.827Z,92.00
2018-06-01T05:32:53.110Z,92.73
2018-06-01T05:35:21.414Z,92.30
2018-06-01T05:37:49.665Z,97.83
2018-06-01T05:40:18.037Z,93.73
2018-06-01T05:42:47.248Z,92.30
2018-06-01T05:45:16.306Z,96.93
2018-06-01T05:47:44.576Z,95.63
2018-06-01T05:50:12.960Z,90.67
2018-06-01T05:52:41.242Z,92.23
2018-06-01T05:55:09.532Z,90.00
2018-06-01T05:57:37.812Z,93.20
2018-06-01T06:00:06.871Z,93.03
2018-06-01T06:02:35.166Z,94.60
2018-06-01T06:05:03.453Z,85.00
2018-06-01T06:07:31.818Z,89.50
2018-06-01T06:10:00.110Z,90.20
2018-06-01T06:12:28.390Z,84.97
2018-06-01T06:14:56.668Z,78.23
2018-06-01T06:17:24.955Z,77.97
2018-06-01T06:19:54.060Z,70.83
2018-06-01T06:22:23.090Z,62.60
2018-06-01T06:24:51.445Z,57.20
2018-06-01T06:27:19.753Z,60.27
2018-06-01T06:29:48.819Z,56.83
2018-06-01T06:32:17.892Z,51.20
2018-06-01T06:34:46.276Z,50.43
2018-06-01T06:37:14.566Z,50.10
2018-06-01T06:39:42.846Z,55.20
2018-06-01T06:42:11.136Z,52.27
2018-06-01T06:44:40.171Z,52.00
2018-06-01T06:47:08.437Z,52.83
2018-06-01T06:49:37.554Z,54.50
2018-06-01T06:52:06.611Z,53.33
2018-06-01T06:54:34.900Z,56.73
2018-06-01T06:57:03.194Z,56.67
2018-06-01T06:59:31.471Z,52.80
2018-06-01T07:01:59.757Z,55.67
2018-06-01T07:04:28.039Z,56.07
2018-06-01T07:06:56.310Z,58.97
2018-06-01T07:09:24.580Z,56.40
2018-06-01T07:11:52.847Z,57.20
2018-06-01T07:14:21.147Z,56.60
2018-06-01T07:16:49.464Z,58.53
2018-06-01T07:19:17.771Z,56.93
2018-06-01T07:21:46.800Z,56.58
2018-06-01T07:24:15.047Z,58.10
2018-06-01T07:26:43.339Z,60.77
2018-06-01T07:29:11.641Z,61.75
2018-06-01T07:31:40.005Z,60.93
2018-06-01T07:34:09.061Z,63.53
2018-06-01T07:36:37.346Z,68.20
2018-06-01T07:39:06.436Z,66.07
2018-06-01T07:41:34.728Z,74.50
2018-06-01T07:44:03.014Z,67.45
2018-06-01T07:46:31.267Z,64.27
2018-06-01T07:48:59.569Z,64.37
2018-06-01T07:51:27.850Z,70.17
2018-06-01T07:53:56.112Z,69.73
2018-06-01T07:56:24.401Z,68.57
2018-06-01T07:58:52.672Z,69.80
2018-06-01T08:01:20.983Z,70.50
2018-06-01T08:03:49.291Z,69.03
2018-06-01T08:06:17.583Z,68.32
2018-06-01T08:08:45.855Z,64.50
2018-06-01T08:11:14.162Z,64.23
2018-06-01T08:13:42.496Z,61.53
2018-06-01T08:16:11.624Z,62.47
2018-06-01T08:18:39.913Z,58.47
2018-06-01T08:21:08.190Z,58.50
2018-06-01T08:23:36.452Z,52.43
2018-06-01T08:26:04.746Z,53.70
2018-06-01T08:28:34.773Z,53.90
2018-06-01T08:31:03.824Z,53.70
2018-06-01T08:33:32.118Z,55.53
2018-06-01T08:36:00.386Z,55.33
2018-06-01T08:38:28.670Z,58.27
2018-06-01T08:40:57.719Z,58.07
2018-06-01T08:43:26.008Z,59.77
2018-06-01T08:45:54.268Z,60.87
2018-06-01T08:48:23.375Z,68.37
2018-06-01T08:50:52.417Z,66.97
2018-06-01T08:53:20.758Z,67.70
2018-06-01T08:55:49.838Z,70.30
2018-06-01T08:58:18.103Z,65.47
2018-06-01T09:00:46.388Z,65.67
2018-06-01T09:03:14.689Z,74.13
2018-06-01T09:05:42.961Z,72.57
2018-06-01T09:08:11.251Z,73.30
2018-06-01T09:10:39.542Z,72.93
2018-06-01T09:13:07.805Z,71.43
2018-06-01T09:15:36.832Z,72.37
2018-06-01T09:18:05.128Z,71.30
2018-06-01T09:20:33.495Z,73.30
2018-06-01T09:23:02.538Z,78.03
2018-06-01T09:25:30.817Z,77.07
2018-06-01T09:27:59.125Z,79.73
2018-06-01T09:30:28.374Z,73.00
2018-06-01T09:32:56.655Z,73.53
2018-06-01T09:35:25.152Z,71.43
2018-06-01T09:37:53.430Z,68.73
2018-06-01T09:40:21.719Z,68.45
2018-06-01T09:42:50.014Z,67.33
2018-06-01T09:45:18.461Z,76.07
2018-06-01T09:47:46.771Z,66.97
2018-06-01T09:50:15.047Z,68.83
2018-06-01T09:52:43.316Z,70.30
2018-06-01T09:55:12.379Z,67.63
2018-06-01T09:57:40.639Z,66.53
2018-06-01T10:00:08.911Z,66.60
2018-06-01T10:02:37.249Z,68.77
2018-06-01T10:05:05.511Z,62.70
2018-06-01T10:07:33.771Z,64.20
2018-06-01T10:10:08.323Z,66.57
2018-06-01T10:12:36.610Z,68.03
2018-06-01T10:15:04.889Z,70.77
2018-06-01T10:17:33.942Z,62.57
2018-06-01T10:20:02.200Z,60.50
2018-06-01T10:22:31.374Z,55.03
2018-06-01T10:24:59.679Z,57.57
2018-06-01T10:27:28.723Z,62.23
2018-06-01T10:29:57.001Z,63.90
2018-06-01T10:32:25.307Z,63.23
2018-06-01T10:34:53.563Z,66.57
2018-06-01T10:37:22.612Z,66.87
2018-06-01T10:39:50.941Z,64.73
2018-06-01T10:42:19.329Z,68.90
2018-06-01T10:44:47.645Z,78.30
2018-06-01T10:47:16.829Z,73.63
2018-06-01T10:49:45.097Z,76.63
2018-06-01T10:52:13.373Z,78.07
2018-06-01T10:54:41.672Z,73.47
2018-06-01T10:57:09.946Z,82.13
2018-06-01T10:59:38.223Z,76.27
2018-06-01T11:02:07.251Z,77.30
2018-06-01T11:04:35.777Z,72.83
2018-06-01T11:07:04.069Z,82.07
2018-06-01T11:09:34.427Z,78.77
2018-06-01T11:12:04.209Z,73.13
2018-06-01T11:14:32.633Z,69.93
2018-06-01T11:17:00.882Z,75.43
2018-06-01T11:19:29.268Z,68.40
2018-06-01T11:21:57.519Z,70.30
2018-06-01T11:24:25.827Z,68.13
2018-06-01T11:26:54.860Z,71.53
2018-06-01T11:31:55.968Z,71.80
2018-06-01T11:34:24.316Z,72.47
2018-06-01T11:36:53.367Z,72.63
2018-06-01T11:39:21.664Z,75.67
2018-06-01T11:41:49.971Z,72.97
2018-06-01T11:44:18.251Z,79.03
2018-06-01T11:46:46.595Z,75.27
2018-06-01T11:49:14.880Z,74.90
2018-06-01T11:51:43.935Z,71.50
2018-06-01T11:54:12.249Z,68.33
2018-06-01T11:56:40.539Z,67.87
2018-06-01T11:59:09.013Z,69.33
2018-06-01T12:01:37.291Z,67.83
2018-06-01T12:04:05.552Z,67.03
2018-06-01T12:06:33.851Z,70.20
2018-06-01T12:09:02.156Z,67.57
2018-06-01T12:11:30.410Z,71.00
2018-06-01T12:13:59.493Z,71.73
2018-06-01T12:16:27.763Z,67.80
2018-06-01T12:18:56.024Z,67.68
2018-06-01T12:21:24.303Z,67.10
2018-06-01T12:23:52.613Z,66.33
2018-06-01T12:26:20.992Z,63.60
2018-06-01T12:28:49.297Z,65.93
2018-06-01T12:31:17.612Z,65.13
2018-06-01T12:33:45.888Z,61.83
2018-06-01T12:36:14.155Z,64.23
2018-06-01T12:38:42.458Z,68.30
2018-06-01T12:41:10.724Z,62.23
2018-06-01T12:43:39.770Z,63.90
2018-06-01T12:46:08.050Z,65.07
2018-06-01T12:48:36.319Z,63.17
2018-06-01T12:51:04.583Z,59.90
2018-06-01T12:53:33.622Z,61.77
2018-06-01T12:56:01.907Z,62.57
2018-06-01T12:58:30.191Z,62.07
2018-06-01T13:00:58.484Z,65.23
2018-06-01T13:03:26.762Z,63.33
2018-06-01T13:05:55.059Z,61.47
2018-06-01T13:08:24.117Z,63.27
2018-06-01T13:10:52.371Z,65.60
2018-06-01T13:13:20.680Z,63.97
2018-06-01T13:15:48.985Z,66.30
2018-06-01T13:18:17.438Z,66.57
2018-06-01T13:20:45.763Z,65.20
2018-06-01T13:23:14.026Z,66.07
2018-06-01T13:25:42.317Z,60.20
2018-06-01T13:28:10.613Z,53.07
2018-06-01T13:30:38.885Z,47.80
2018-06-01T13:33:07.911Z,44.67
2018-06-01T13:35:36.168Z,44.40
2018-06-01T13:38:05.212Z,43.27
2018-06-01T13:40:33.883Z,42.30
2018-06-01T13:43:02.919Z,43.08
2018-06-01T13:45:31.194Z,42.00
2018-06-01T13:47:59.488Z,43.17
2018-06-01T13:50:27.752Z,40.87
2018-06-01T13:52:56.795Z,39.63
2018-06-01T13:55:25.097Z,40.40
2018-06-01T13:57:53.393Z,40.40
2018-06-01T14:00:21.863Z,35.33
2018-06-01T14:02:50.924Z,32.60
2018-06-01T14:05:19.219Z,34.27
2018-06-01T14:07:47.546Z,33.33
2018-06-01T14:10:15.833Z,36.90
2018-06-01T14:12:44.874Z,34.90
2018-06-01T14:15:13.164Z,36.07
2018-06-01T14:17:41.424Z,36.23
2018-06-01T14:20:10.443Z,39.90
2018-06-01T14:22:38.755Z,39.83
2018-06-01T14:25:07.024Z,42.53
2018-06-01T14:27:35.284Z,41.43
2018-06-01T14:30:04.355Z,45.65
2018-06-01T14:32:32.627Z,44.63
2018-06-01T14:35:00.977Z,50.63
2018-06-01T14:37:29.298Z,42.97
2018-06-01T14:39:57.624Z,55.53
2018-06-01T14:42:25.898Z,57.97
2018-06-01T14:44:54.196Z,55.40
2018-06-01T14:47:22.549Z,60.87
2018-06-01T14:49:51.597Z,62.37
2018-06-01T14:52:19.957Z,62.63
2018-06-01T14:54:48.241Z,58.73
2018-06-01T14:57:16.513Z,60.80
2018-06-01T14:59:45.566Z,61.17
2018-06-01T15:02:13.839Z,64.50
2018-06-01T15:04:42.102Z,65.13
2018-06-01T15:07:11.135Z,69.83
2018-06-01T15:09:39.416Z,68.00
2018-06-01T15:12:07.732Z,70.87
2018-06-01T15:14:36.008Z,68.47
2018-06-01T15:17:04.376Z,68.03
2018-06-01T15:19:32.662Z,72.03
2018-06-01T15:22:01.729Z,71.70
2018-06-01T15:24:29.993Z,73.73
2018-06-01T15:26:58.287Z,68.90
2018-06-01T15:29:26.580Z,68.67
2018-06-01T15:31:54.853Z,73.07
2018-06-01T15:34:23.240Z,72.23
2018-06-01T15:36:51.513Z,73.77
2018-06-01T15:39:20.586Z,69.33
2018-06-01T15:41:48.851Z,66.53
2018-06-01T15:44:17.135Z,69.10
2018-06-01T15:46:45.409Z,65.73
2018-06-01T15:49:13.874Z,72.03
2018-06-01T15:51:42.132Z,65.87
2018-06-01T15:54:10.397Z,62.90
2018-06-01T15:56:38.663Z,65.80
2018-06-01T15:59:06.958Z,62.57
2018-06-01T16:01:35.219Z,60.40
2018-06-01T16:04:04.266Z,53.97
2018-06-01T16:06:32.532Z,54.67
2018-06-01T16:09:01.582Z,51.70
2018-06-01T16:11:29.859Z,47.33
2018-06-01T16:13:58.137Z,48.37
2018-06-01T16:16:26.417Z,48.00
2018-06-01T16:18:56.516Z,43.30
2018-06-01T16:21:24.807Z,44.70
2018-06-01T16:23:53.079Z,43.37
2018-06-01T16:26:23.043Z,41.17
2018-06-01T16:28:51.696Z,40.67
2018-06-01T16:31:19.994Z,42.20
2018-06-01T16:33:48.266Z,39.67
2018-06-01T16:36:16.591Z,38.77
2018-06-01T16:38:44.925Z,37.93
2018-06-01T16:41:13.970Z,38.78
2018-06-01T16:43:42.240Z,38.70
2018-06-01T16:46:10.499Z,40.00
2018-06-01T16:48:40.210Z,38.93
2018-06-01T16:51:08.483Z,35.73
2018-06-01T16:53:36.731Z,35.40
2018-06-01T16:56:05.034Z,34.83
2018-06-01T16:58:33.337Z,36.87
2018-06-01T17:01:01.592Z,35.27
2018-06-01T17:03:29.855Z,35.13
2018-06-01T17:05:58.128Z,36.00
2018-06-01T17:08:26.410Z,32.80
2018-06-01T17:10:54.677Z,32.93
2018-06-01T17:13:23.050Z,32.40
2018-06-01T17:15:52.076Z,32.13
2018-06-01T17:18:20.389Z,32.33
2018-06-01T17:20:48.674Z,31.00
2018-06-01T17:23:17.260Z,30.90
2018-06-01T17:25:45.518Z,32.07
2018-06-01T17:28:13.824Z,30.30
2018-06-01T17:30:42.071Z,30.00
2018-06-01T17:33:10.366Z,29.00
2018-06-01T17:35:38.789Z,30.50
2018-06-01T17:38:07.831Z,29.33
2018-06-01T17:40:36.096Z,28.93
2018-06-01T17:43:04.386Z,30.73
2018-06-01T17:45:32.655Z,30.13
2018-06-01T17:48:01.779Z,29.27
2018-06-01T17:50:30.073Z,28.43
2018-06-01T17:52:58.348Z,25.67
2018-06-01T17:55:27.389Z,26.53
2018-06-01T17:57:55.701Z,28.30
2018-06-01T18:00:23.948Z,28.73
2018-06-01T18:02:52.212Z,28.70
2018-06-01T18:05:21.272Z,28.57
2018-06-01T18:07:49.541Z,28.83
2018-06-01T18:10:17.858Z,29.73
2018-06-01T18:12:46.187Z,29.23
2018-06-01T18:15:14.448Z,28.20
2018-06-01T18:17:42.715Z,30.20
2018-06-01T18:20:11.013Z,29.87
2018-06-01T18:22:39.325Z,27.93
2018-06-01T18:25:07.594Z,30.63
2018-06-01T18:27:36.758Z,29.17
2018-06-01T18:30:05.775Z,29.60
2018-06-01T18:32:34.073Z,30.27
2018-06-01T18:35:02.412Z,31.60
2018-06-01T18:37:30.689Z,31.70
2018-06-01T18:39:58.990Z,31.87
2018-06-01T18:42:27.314Z,31.37
2018-06-01T18:44:56.371Z,30.50
2018-06-01T18:47:24.663Z,31.77
2018-06-01T18:49:53.254Z,30.70
2018-06-01T18:52:21.771Z,31.80
2018-06-01T18:54:50.068Z,30.33
2018-06-01T18:57:18.394Z,29.50
2018-06-01T18:59:47.465Z,28.87
2018-06-01T19:02:15.732Z,28.17
2018-06-01T19:04:44.099Z,28.53
2018-06-01T19:07:12.362Z,27.70
2018-06-01T19:09:40.626Z,28.37
2018-06-01T19:12:08.897Z,28.57
2018-06-01T19:14:37.205Z,28.60
2018-06-01T19:17:05.524Z,27.77
2018-06-01T19:19:33.804Z,26.80
2018-06-01T19:22:02.074Z,29.43
2018-06-01T19:24:30.354Z,29.60
2018-06-01T19:26:58.657Z,28.93
2018-06-01T19:29:26.917Z,27.77
2018-06-01T19:31:55.242Z,30.73
2018-06-01T19:34:23.524Z,30.83
2018-06-01T19:36:51.799Z,30.23
2018-06-01T19:39:20.089Z,31.13
2018-06-01T19:41:48.428Z,32.30
2018-06-01T19:44:16.687Z,32.37
2018-06-01T19:46:45.097Z,32.23
2018-06-01T19:49:13.360Z,33.30
2018-06-01T19:51:41.645Z,34.50
2018-06-01T19:54:09.920Z,33.27
2018-06-01T19:56:38.216Z,35.53
2018-06-01T19:59:06.496Z,33.57
2018-06-01T20:01:34.789Z,35.90
2018-06-01T20:04:03.074Z,36.87
2018-06-01T20:06:31.350Z,35.20
2018-06-01T20:09:00.389Z,37.73
2018-06-01T20:11:28.672Z,39.43
2018-06-01T20:13:57.053Z,37.27
2018-06-01T20:16:25.405Z,37.43
2018-06-01T20:18:53.704Z,37.07
2018-06-01T20:21:22.007Z,36.90
2018-06-01T20:23:50.309Z,36.57
2018-06-01T20:26:19.409Z,35.93
2018-06-01T20:28:47.753Z,40.27
2018-06-01T20:31:16.816Z,36.87
2018-06-01T20:33:45.130Z,39.07
2018-06-01T20:36:14.223Z,39.07
2018-06-01T20:38:42.479Z,38.90
2018-06-01T20:41:11.029Z,39.90
2018-06-01T20:43:39.322Z,38.97
2018-06-01T20:46:07.595Z,39.53
2018-06-01T20:48:35.882Z,38.45
2018-06-01T20:51:04.137Z,39.47
2018-06-01T20:53:33.204Z,41.13
2018-06-01T20:56:01.489Z,38.77
2018-06-01T20:58:29.786Z,40.17
2018-06-01T21:00:58.080Z,39.10
2018-06-01T21:03:26.355Z,39.03
2018-06-01T21:05:54.642Z,39.53
2018-06-01T21:08:22.977Z,39.67
2018-06-01T21:10:51.323Z,40.60
2018-06-01T21:13:19.620Z,39.67
2018-06-01T21:15:47.933Z,39.15
2018-06-01T21:18:16.212Z,40.27
2018-06-01T21:20:44.536Z,42.07
2018-06-01T21:23:12.784Z,41.67
2018-06-01T21:25:41.156Z,40.30
2018-06-01T21:28:09.433Z,42.67
2018-06-01T21:30:38.456Z,42.40
2018-06-01T21:33:06.727Z,40.83
2018-06-01T21:35:35.042Z,43.13
2018-06-01T21:38:03.311Z,41.77
2018-06-01T21:40:32.343Z,41.63
2018-06-01T21:43:00.721Z,43.13
2018-06-01T21:45:29.768Z,43.43
2018-06-01T21:47:58.096Z,42.83
2018-06-01T21:50:26.386Z,41.53
2018-06-01T21:52:54.688Z,43.93
2018-06-01T21:55:23.020Z,41.20
2018-06-01T21:57:51.374Z,42.47
2018-06-01T22:00:20.473Z,41.47
2018-06-01T22:02:49.569Z,41.70
2018-06-01T22:05:17.916Z,40.77
2018-06-01T22:07:46.292Z,40.55
2018-06-01T22:10:14.663Z,39.33
2018-06-01T22:12:43.707Z,41.77
2018-06-01T22:15:11.989Z,40.90
2018-06-01T22:17:40.268Z,41.23
2018-06-01T22:20:09.445Z,39.70
2018-06-01T22:22:37.769Z,38.57
2018-06-01T22:25:06.036Z,37.60
2018-06-01T22:27:35.174Z,40.53
2018-06-01T22:30:03.438Z,40.67
2018-06-01T22:32:32.503Z,39.03
2018-06-01T22:35:00.786Z,38.97
2018-06-01T22:37:29.062Z,39.13
2018-06-01T22:39:57.348Z,38.35
2018-06-01T22:42:25.654Z,37.97
2018-06-01T22:44:53.890Z,35.27
2018-06-01T22:47:22.184Z,35.40
2018-06-01T22:49:51.245Z,35.20
2018-06-01T22:52:19.505Z,33.10
2018-06-01T22:54:48.527Z,35.72
2018-06-01T22:57:16.794Z,34.20
2018-06-01T22:59:45.102Z,36.63
2018-06-01T23:02:13.410Z,36.97
2018-06-01T23:04:41.660Z,36.73
2018-06-01T23:07:10.714Z,37.47
2018-06-01T23:09:39.047Z,36.83
2018-06-01T23:12:07.366Z,38.53
2018-06-01T23:14:35.691Z,39.97
2018-06-01T23:17:04.719Z,39.23
2018-06-01T23:19:32.989Z,41.23
2018-06-01T23:22:01.263Z,42.63
2018-06-01T23:24:29.554Z,42.27
2018-06-01T23:26:57.826Z,44.33
2018-06-01T23:29:26.087Z,44.33
2018-06-01T23:31:55.187Z,42.87
2018-06-01T23:34:23.481Z,45.07
2018-06-01T23:36:51.759Z,44.70
2018-06-01T23:39:20.095Z,44.13
2018-06-01T23:41:48.383Z,47.37
2018-06-01T23:44:16.724Z,48.75
2018-06-01T23:46:45.048Z,49.90
2018-06-01T23:49:14.091Z,49.67
2018-06-01T23:51:42.423Z,49.30
2018-06-01T23:54:10.697Z,47.63
2018-06-01T23:56:38.985Z,48.40
2018-06-01T23:59:07.244Z,51.27
